createdAt,value
2017-09-07T03:32:08.449Z,12.10
2017-09-07T03:34:36.129Z,12.20
2017-09-07T03:37:03.708Z,12.10
2017-09-07T03:39:31.341Z,12.20
2017-09-07T03:41:59.017Z,12.20
2017-09-07T03:44:26.593Z,12.10
2017-09-07T03:46:54.229Z,12.00
2017-09-07T03:49:21.814Z,12.00
2017-09-07T03:51:49.449Z,12.00
2017-09-07T03:54:17.110Z,12.10
2017-09-07T03:56:44.699Z,12.10
2017-09-07T03:59:12.327Z,12.20
2017-09-07T04:01:40.006Z,12.10
2017-09-07T04:04:07.649Z,12.10
2017-09-07T04:06:35.289Z,12.20
2017-09-07T04:09:02.889Z,12.20
2017-09-07T04:11:30.465Z,12.20
2017-09-07T04:13:58.294Z,12.20
2017-09-07T04:16:25.893Z,12.20
2017-09-07T04:18:53.509Z,12.20
2017-09-07T04:21:21.985Z,12.20
2017-09-07T04:23:50.329Z,12.20
2017-09-07T04:26:17.926Z,12.10
2017-09-07T04:28:45.553Z,12.20
2017-09-07T04:31:13.133Z,12.00
2017-09-07T04:33:40.709Z,12.00
2017-09-07T04:36:08.361Z,11.90
2017-09-07T04:38:36.024Z,12.00
2017-09-07T04:41:03.613Z,12.00
2017-09-07T04:43:31.249Z,12.10
2017-09-07T04:45:59.615Z,12.10
2017-09-07T04:48:27.280Z,12.00
2017-09-07T04:50:54.942Z,12.20
2017-09-07T04:53:22.594Z,12.20
2017-09-07T04:55:50.173Z,12.20
2017-09-07T04:58:17.817Z,12.10
2017-09-07T05:00:45.402Z,11.90
2017-09-07T05:03:12.982Z,12.00
2017-09-07T05:05:40.797Z,12.00
2017-09-07T05:08:09.154Z,12.00
2017-09-07T05:10:36.838Z,12.00
2017-09-07T05:13:04.697Z,12.10
2017-09-07T05:15:32.357Z,12.00
2017-09-07T05:18:00.022Z,12.00
2017-09-07T05:20:27.657Z,12.00
2017-09-07T05:22:55.241Z,12.10
2017-09-07T05:25:22.906Z,12.10
2017-09-07T05:27:50.527Z,12.10
2017-09-07T05:30:18.109Z,12.20
2017-09-07T05:32:45.694Z,12.10
2017-09-07T05:35:13.337Z,12.20
2017-09-07T05:37:40.918Z,12.20
2017-09-07T05:40:08.506Z,12.30
2017-09-07T05:42:36.194Z,12.30
2017-09-07T05:45:03.877Z,12.30
2017-09-07T05:47:31.569Z,12.40
2017-09-07T05:49:59.182Z,12.40
2017-09-07T05:52:26.866Z,12.40
2017-09-07T05:54:54.477Z,12.40
2017-09-07T05:57:22.057Z,12.50
2017-09-07T05:59:49.641Z,12.50
2017-09-07T06:02:17.375Z,12.60
2017-09-07T06:04:44.960Z,12.70
2017-09-07T06:07:12.537Z,12.80
2017-09-07T06:09:40.162Z,12.90
2017-09-07T06:12:07.745Z,12.90
2017-09-07T06:14:35.329Z,12.90
2017-09-07T06:17:02.975Z,12.90
2017-09-07T06:19:30.553Z,12.90
2017-09-07T06:21:58.134Z,12.90
2017-09-07T06:24:25.742Z,13.00
2017-09-07T06:26:53.326Z,12.90
2017-09-07T06:29:20.970Z,12.90
2017-09-07T06:31:48.550Z,13.00
2017-09-07T06:34:16.134Z,13.00
2017-09-07T06:36:43.926Z,13.10
2017-09-07T06:39:11.509Z,13.00
2017-09-07T06:41:39.089Z,13.10
2017-09-07T06:44:06.705Z,13.10
2017-09-07T06:46:34.285Z,13.10
2017-09-07T06:49:01.866Z,13.10
2017-09-07T06:51:29.657Z,13.30
2017-09-07T06:53:57.237Z,13.20
2017-09-07T06:56:24.817Z,13.20
2017-09-07T06:58:52.453Z,13.20
2017-09-07T07:01:20.125Z,13.20
2017-09-07T07:03:47.709Z,13.20
2017-09-07T07:06:15.337Z,13.20
2017-09-07T07:08:42.917Z,13.20
2017-09-07T07:11:10.509Z,13.30
2017-09-07T07:13:38.128Z,13.30
2017-09-07T07:16:05.714Z,13.40
2017-09-07T07:18:33.297Z,13.30
2017-09-07T07:21:00.937Z,13.20
2017-09-07T07:23:28.518Z,13.20
2017-09-07T07:25:56.115Z,13.20
2017-09-07T07:28:23.769Z,13.30
2017-09-07T07:30:52.149Z,13.40
2017-09-07T07:33:19.733Z,13.30
2017-09-07T07:35:47.365Z,13.30
2017-09-07T07:38:14.950Z,13.20
2017-09-07T07:40:42.533Z,13.10
2017-09-07T07:43:10.154Z,13.10
2017-09-07T07:45:37.747Z,13.00
2017-09-07T07:48:05.334Z,13.00
2017-09-07T07:50:32.965Z,13.10
2017-09-07T07:53:00.583Z,13.10
2017-09-07T07:55:28.245Z,13.20
2017-09-07T07:57:55.888Z,13.20
2017-09-07T08:00:23.478Z,13.20
2017-09-07T08:02:51.068Z,13.30
2017-09-07T08:05:18.678Z,13.50
2017-09-07T08:07:46.274Z,13.60
2017-09-07T08:10:13.900Z,13.70
2017-09-07T08:12:42.258Z,13.80
2017-09-07T08:15:09.849Z,13.90
2017-09-07T08:17:37.488Z,13.90
2017-09-07T08:20:05.386Z,14.00
2017-09-07T08:22:32.972Z,14.00
2017-09-07T08:25:00.606Z,14.10
2017-09-07T08:27:28.197Z,14.20
2017-09-07T08:29:55.788Z,14.40
2017-09-07T08:32:23.408Z,14.10
2017-09-07T08:34:50.989Z,14.10
2017-09-07T08:37:18.881Z,14.10
2017-09-07T08:39:46.465Z,14.00
2017-09-07T08:42:14.050Z,14.00
2017-09-07T08:44:41.669Z,14.00
2017-09-07T08:47:09.267Z,14.10
2017-09-07T08:49:36.849Z,14.00
2017-09-07T08:52:04.461Z,14.00
2017-09-07T08:54:32.049Z,14.00
2017-09-07T08:56:59.669Z,14.00
2017-09-07T08:59:27.258Z,13.90
2017-09-07T09:01:54.842Z,13.90
2017-09-07T09:04:22.637Z,13.80
2017-09-07T09:06:50.226Z,13.80
2017-09-07T09:09:17.806Z,13.80
2017-09-07T09:11:45.434Z,13.80
2017-09-07T09:14:13.019Z,13.80
2017-09-07T09:16:40.601Z,13.70
2017-09-07T09:19:08.238Z,13.70
2017-09-07T09:21:35.834Z,13.80
2017-09-07T09:24:03.418Z,13.80
2017-09-07T09:26:31.276Z,13.70
2017-09-07T09:28:59.625Z,13.60
2017-09-07T09:31:27.210Z,13.50
2017-09-07T09:33:54.841Z,13.50
2017-09-07T09:36:22.420Z,13.50
2017-09-07T09:38:50.005Z,13.60
2017-09-07T09:41:17.806Z,13.60
2017-09-07T09:43:45.389Z,13.80
2017-09-07T09:46:12.977Z,14.00
2017-09-07T09:48:40.606Z,14.10
2017-09-07T09:51:08.188Z,14.30
2017-09-07T09:53:35.770Z,14.50
2017-09-07T09:56:03.558Z,14.80
2017-09-07T09:58:31.142Z,14.80
2017-09-07T10:00:58.725Z,14.50
2017-09-07T10:03:26.334Z,14.60
2017-09-07T10:05:54.145Z,14.50
2017-09-07T10:08:22.497Z,14.60
2017-09-07T10:10:50.081Z,14.60
2017-09-07T10:13:17.690Z,14.70
2017-09-07T10:15:45.266Z,14.70
2017-09-07T10:18:12.841Z,14.80
2017-09-07T10:20:40.466Z,14.80
2017-09-07T10:23:08.047Z,15.00
2017-09-07T10:25:35.626Z,15.10
2017-09-07T10:28:03.253Z,14.90
2017-09-07T10:30:30.839Z,15.20
2017-09-07T10:32:58.422Z,15.20
2017-09-07T10:35:26.142Z,15.30
2017-09-07T10:37:53.726Z,15.30
2017-09-07T10:40:21.343Z,15.40
2017-09-07T10:42:48.972Z,15.70
2017-09-07T10:45:16.618Z,15.50
2017-09-07T10:47:44.229Z,15.20
2017-09-07T10:50:11.862Z,15.10
2017-09-07T10:52:39.446Z,15.10
2017-09-07T10:55:07.025Z,15.00
2017-09-07T10:57:34.654Z,15.10
2017-09-07T11:00:02.242Z,15.30
2017-09-07T11:02:29.827Z,15.50
2017-09-07T11:04:57.441Z,15.60
2017-09-07T11:07:25.026Z,15.50
2017-09-07T11:09:52.604Z,15.30
2017-09-07T11:12:20.221Z,15.40
2017-09-07T11:14:47.806Z,15.40
2017-09-07T11:17:15.389Z,15.50
2017-09-07T11:19:43.177Z,15.70
2017-09-07T11:22:10.754Z,15.60
2017-09-07T11:24:38.332Z,15.90
2017-09-07T11:27:05.979Z,16.00
2017-09-07T11:29:33.558Z,15.90
2017-09-07T11:32:01.138Z,15.70
2017-09-07T11:34:28.769Z,15.80
2017-09-07T11:36:56.357Z,15.90
2017-09-07T11:39:23.943Z,16.20
2017-09-07T11:41:51.745Z,16.40
2017-09-07T11:44:19.326Z,16.30
2017-09-07T11:46:46.906Z,16.10
2017-09-07T11:49:14.521Z,16.00
2017-09-07T11:51:42.102Z,15.80
2017-09-07T11:54:09.690Z,15.60
2017-09-07T11:56:37.305Z,15.50
2017-09-07T11:59:04.881Z,15.60
2017-09-07T12:01:32.465Z,15.70
2017-09-07T12:04:00.086Z,15.90
2017-09-07T12:06:27.662Z,15.90
2017-09-07T12:08:55.252Z,15.70
2017-09-07T12:11:23.093Z,15.50
2017-09-07T12:13:50.677Z,15.20
2017-09-07T12:16:18.253Z,14.90
2017-09-07T12:18:45.893Z,14.70
2017-09-07T12:21:13.486Z,14.10
2017-09-07T12:23:41.074Z,13.20
2017-09-07T12:26:08.706Z,12.80
2017-09-07T12:28:36.285Z,12.70
2017-09-07T12:31:03.862Z,12.60
2017-09-07T12:33:31.505Z,12.60
2017-09-07T12:35:59.083Z,12.70
2017-09-07T12:38:26.661Z,12.70
2017-09-07T12:40:54.287Z,12.80
2017-09-07T12:43:21.869Z,13.10
2017-09-07T12:45:49.454Z,13.40
2017-09-07T12:48:17.073Z,13.70
2017-09-07T12:50:45.433Z,13.90
2017-09-07T12:53:13.017Z,13.90
2017-09-07T12:55:40.645Z,14.00
2017-09-07T12:58:08.238Z,13.90
2017-09-07T13:00:35.821Z,13.90
2017-09-07T13:03:03.656Z,13.90
2017-09-07T13:05:31.242Z,14.00
2017-09-07T13:07:58.825Z,14.10
2017-09-07T13:10:26.453Z,14.20
2017-09-07T13:12:54.029Z,14.30
2017-09-07T13:15:21.605Z,14.40
2017-09-07T13:17:49.401Z,14.60
2017-09-07T13:20:16.982Z,14.80
2017-09-07T13:22:44.558Z,14.90
2017-09-07T13:25:12.166Z,15.00
2017-09-07T13:27:39.746Z,15.00
2017-09-07T13:30:07.510Z,15.20
2017-09-07T13:32:35.857Z,15.70
2017-09-07T13:35:03.434Z,15.60
2017-09-07T13:37:31.050Z,15.70
2017-09-07T13:39:58.629Z,15.70
2017-09-07T13:42:26.205Z,15.60
2017-09-07T13:44:53.835Z,15.50
2017-09-07T13:47:21.414Z,15.40
2017-09-07T13:49:48.994Z,15.40
2017-09-07T13:52:16.593Z,15.50
2017-09-07T13:54:44.165Z,15.50
2017-09-07T13:57:11.783Z,15.50
2017-09-07T13:59:39.362Z,15.40
2017-09-07T14:02:06.942Z,15.40
2017-09-07T14:04:34.708Z,15.40
2017-09-07T14:07:02.294Z,15.50
2017-09-07T14:09:29.874Z,15.60
2017-09-07T14:11:57.514Z,15.70
2017-09-07T14:14:25.097Z,15.90
2017-09-07T14:16:52.677Z,16.00
2017-09-07T14:19:20.394Z,16.10
2017-09-07T14:21:47.981Z,16.20
2017-09-07T14:24:15.684Z,16.30
2017-09-07T14:26:43.389Z,16.40
2017-09-07T14:29:10.966Z,16.50
2017-09-07T14:31:38.812Z,16.30
2017-09-07T14:34:06.424Z,16.30
2017-09-07T14:36:33.990Z,16.40
2017-09-07T14:39:01.609Z,16.40
2017-09-07T14:41:29.185Z,16.50
2017-09-07T14:43:56.764Z,16.40
2017-09-07T14:46:24.465Z,16.50
2017-09-07T14:48:52.826Z,16.80
2017-09-07T14:51:20.406Z,16.80
2017-09-07T14:53:48.037Z,16.90
2017-09-07T14:56:15.618Z,17.00
2017-09-07T14:58:43.201Z,17.10
2017-09-07T15:01:10.842Z,17.30
2017-09-07T15:03:38.423Z,17.30
2017-09-07T15:06:06.005Z,17.40
2017-09-07T15:08:33.645Z,17.50
2017-09-07T15:11:01.222Z,17.60
2017-09-07T15:13:28.801Z,17.40
2017-09-07T15:15:56.701Z,17.10
2017-09-07T15:18:24.354Z,16.90
2017-09-07T15:20:51.932Z,16.70
2017-09-07T15:23:19.553Z,16.50
2017-09-07T15:25:47.250Z,16.00
2017-09-07T15:28:14.920Z,15.70
2017-09-07T15:30:42.821Z,15.50
2017-09-07T15:33:10.402Z,15.40
2017-09-07T15:35:37.991Z,15.40
2017-09-07T15:38:05.614Z,15.50
2017-09-07T15:40:33.193Z,15.70
2017-09-07T15:43:00.782Z,15.80
2017-09-07T15:45:28.406Z,16.00
2017-09-07T15:47:56.086Z,16.00
2017-09-07T15:50:24.442Z,15.60
2017-09-07T15:52:52.075Z,15.60
2017-09-07T15:55:19.682Z,15.50
2017-09-07T15:57:47.269Z,15.40
2017-09-07T16:00:14.893Z,15.60
2017-09-07T16:02:42.482Z,15.80
2017-09-07T16:05:10.066Z,15.80
2017-09-07T16:07:37.666Z,15.80
2017-09-07T16:10:05.895Z,15.90
2017-09-07T16:12:33.713Z,16.10
2017-09-07T16:15:01.377Z,16.20
2017-09-07T16:17:28.954Z,15.90
2017-09-07T16:19:56.589Z,15.70
2017-09-07T16:22:24.166Z,15.50
2017-09-07T16:24:51.745Z,15.50
2017-09-07T16:27:19.470Z,15.40
2017-09-07T16:29:47.134Z,15.50
2017-09-07T16:32:14.726Z,15.40
2017-09-07T16:34:42.458Z,15.30
2017-09-07T16:37:10.044Z,15.30
2017-09-07T16:39:37.631Z,15.20
2017-09-07T16:42:05.257Z,15.20
2017-09-07T16:44:32.898Z,15.20
2017-09-07T16:47:28.689Z,15.20
2017-09-07T16:49:56.278Z,15.10
2017-09-07T16:52:23.884Z,15.30
2017-09-07T16:54:51.522Z,15.40
2017-09-07T16:57:19.143Z,15.40
2017-09-07T16:59:47.612Z,15.20
2017-09-07T17:02:15.992Z,15.20
2017-09-07T17:04:44.349Z,15.00
2017-09-07T17:07:11.997Z,15.00
2017-09-07T17:09:39.577Z,15.00
2017-09-07T17:12:07.155Z,15.00
2017-09-07T17:14:35.587Z,14.90
2017-09-07T17:17:03.185Z,14.90
2017-09-07T17:19:30.797Z,14.80
2017-09-07T17:21:58.614Z,14.70
2017-09-07T17:24:26.194Z,14.60
2017-09-07T17:26:53.782Z,14.60
2017-09-07T17:29:21.406Z,14.50
2017-09-07T17:31:48.993Z,14.50
2017-09-07T17:34:16.563Z,14.40
2017-09-07T17:36:44.181Z,14.30
2017-09-07T17:39:12.521Z,14.10
2017-09-07T17:41:40.211Z,14.10
2017-09-07T17:44:08.597Z,13.80
2017-09-07T17:46:36.178Z,13.80
2017-09-07T17:49:03.770Z,13.80
2017-09-07T17:51:31.461Z,13.60
2017-09-07T17:53:59.846Z,13.40
2017-09-07T17:56:28.434Z,13.40
2017-09-07T17:58:56.034Z,13.40
2017-09-07T18:01:23.634Z,13.40
2017-09-07T18:03:52.150Z,13.50
2017-09-07T18:06:19.786Z,13.50
2017-09-07T18:08:48.146Z,13.40
2017-09-07T18:11:16.752Z,13.40
2017-09-07T18:13:45.102Z,13.40
2017-09-07T18:16:12.699Z,13.40
2017-09-07T18:18:40.355Z,13.40
2017-09-07T18:21:07.946Z,13.30
2017-09-07T18:23:35.561Z,13.40
2017-09-07T18:26:03.178Z,13.30
2017-09-07T18:28:30.762Z,13.30
2017-09-07T18:30:59.154Z,13.30
2017-09-07T18:33:27.514Z,13.10
2017-09-07T18:35:55.893Z,13.10
2017-09-07T18:38:24.494Z,13.00
2017-09-07T18:40:52.858Z,13.00
2017-09-07T18:43:20.458Z,13.00
2017-09-07T18:45:48.294Z,13.00
2017-09-07T18:48:16.669Z,13.00
2017-09-07T18:50:45.026Z,13.00
2017-09-07T18:53:12.814Z,13.00
2017-09-07T18:55:41.169Z,13.00
2017-09-07T18:58:09.045Z,12.90
2017-09-07T19:00:37.545Z,12.80
2017-09-07T19:03:05.143Z,12.80
2017-09-07T19:05:32.730Z,12.90
2017-09-07T19:08:00.367Z,12.70
2017-09-07T19:10:27.958Z,12.60
2017-09-07T19:12:56.454Z,12.40
2017-09-07T19:15:24.083Z,12.30
2017-09-07T19:17:51.694Z,12.30
2017-09-07T19:20:19.282Z,12.20
2017-09-07T19:22:47.097Z,12.30
2017-09-07T19:25:15.469Z,12.40
2017-09-07T19:27:43.817Z,12.30
2017-09-07T19:30:11.725Z,12.30
2017-09-07T19:32:40.142Z,12.20
2017-09-07T19:35:07.793Z,12.20
2017-09-07T19:37:35.462Z,12.10
2017-09-07T19:40:03.042Z,12.10
2017-09-07T19:42:30.635Z,12.10
2017-09-07T19:44:59.027Z,12.00
2017-09-07T19:47:26.630Z,11.90
2017-09-07T19:49:54.215Z,12.00
2017-09-07T19:52:22.602Z,12.40
2017-09-07T19:54:50.953Z,12.40
2017-09-07T19:57:18.642Z,12.40
2017-09-07T19:59:47.034Z,12.40
2017-09-07T20:02:14.614Z,12.40
2017-09-07T20:04:42.234Z,12.30
2017-09-07T20:07:10.653Z,12.10
2017-09-07T20:09:38.239Z,12.10
2017-09-07T20:12:05.823Z,12.00
2017-09-07T20:14:34.262Z,11.90
2017-09-07T20:17:01.846Z,11.80
2017-09-07T20:19:30.233Z,12.10
2017-09-07T20:21:57.910Z,12.10
2017-09-07T20:24:26.268Z,12.10
2017-09-07T20:26:54.766Z,12.00
2017-09-07T20:29:23.245Z,12.00
2017-09-07T20:31:51.595Z,12.00
2017-09-07T20:34:20.022Z,11.90
2017-09-07T20:36:47.618Z,11.90
2017-09-07T20:39:15.207Z,11.90
2017-09-07T20:41:43.598Z,11.90
2017-09-07T20:44:11.945Z,11.60
2017-09-07T20:46:39.525Z,11.60
2017-09-07T20:49:08.109Z,11.50
2017-09-07T20:51:36.453Z,11.50
2017-09-07T20:54:04.039Z,11.50
2017-09-07T20:56:32.443Z,11.50
2017-09-07T20:59:00.186Z,11.40
2017-09-07T21:01:28.542Z,11.50
2017-09-07T21:03:56.181Z,11.40
2017-09-07T21:06:23.798Z,11.30
2017-09-07T21:08:51.550Z,11.20
2017-09-07T21:11:19.938Z,11.10
2017-09-07T21:13:47.521Z,11.00
2017-09-07T21:16:15.105Z,11.10
2017-09-07T21:18:42.878Z,11.20
2017-09-07T21:21:10.457Z,11.20
2017-09-07T21:23:38.811Z,11.20
2017-09-07T21:26:06.454Z,11.20
2017-09-07T21:28:34.033Z,11.00
2017-09-07T21:31:01.614Z,11.10
2017-09-07T21:33:29.989Z,11.10
2017-09-07T21:35:58.338Z,11.10
2017-09-07T21:38:25.930Z,11.00
2017-09-07T21:40:54.498Z,10.70
2017-09-07T21:43:22.081Z,10.70
2017-09-07T21:45:50.425Z,10.60
2017-09-07T21:48:18.046Z,10.50
2017-09-07T21:50:45.630Z,11.00
2017-09-07T21:53:13.210Z,10.90
2017-09-07T21:55:41.802Z,11.40
2017-09-07T21:58:10.177Z,11.50
2017-09-07T22:00:38.557Z,11.70
2017-09-07T22:03:07.037Z,11.50
2017-09-07T22:05:35.378Z,11.40
2017-09-07T22:08:02.957Z,11.40
2017-09-07T22:10:30.586Z,11.30
2017-09-07T22:12:58.167Z,11.10
2017-09-07T22:15:25.745Z,11.00
2017-09-07T22:17:54.231Z,10.90
2017-09-07T22:20:22.587Z,10.80
2017-09-07T22:22:50.174Z,10.80
2017-09-07T22:25:17.959Z,10.70
2017-09-07T22:27:45.546Z,10.70
